Time;durP1;ratioP1;P1;durP2;ratioP2;P2;SDS_P1;SDS_P2;PMS_P1;PMS_P2;Temp;Humidity;BMP_temperature;BMP_pressure;BME280_temperature;BME280_humidity;BME280_pressure;Samples;Min_cycle;Max_cycle;Signal;HPM_P1;HPM_P2
2021/01/10 00:00:14;;;;;;;39.93;17.97;;;2.00;99.90;;;;;;5078706;28;20379;-57
2021/01/10 00:02:41;;;;;;;34.43;16.90;;;2.00;99.90;;;;;;5078845;28;20032;-57
2021/01/10 00:05:12;;;;;;;34.83;17.70;;;1.90;99.90;;;;;;5078438;28;20091;-57
2021/01/10 00:07:38;;;;;;;30.70;13.80;;;1.90;99.90;;;;;;5060825;28;20143;-57
2021/01/10 00:10:08;;;;;;;30.07;14.10;;;1.90;99.90;;;;;;5078890;28;20332;-58
2021/01/10 00:12:34;;;;;;;39.00;20.97;;;1.80;99.90;;;;;;5078562;28;20055;-57
2021/01/10 00:14:59;;;;;;;32.40;14.70;;;1.80;99.90;;;;;;5078339;28;20064;-59
2021/01/10 00:17:25;;;;;;;32.65;16.45;;;1.90;99.90;;;;;;5060324;28;20045;-58
2021/01/10 00:19:51;;;;;;;35.43;15.73;;;1.90;99.90;;;;;;5074986;28;20340;-56
2021/01/10 00:22:21;;;;;;;36.17;16.50;;;1.90;99.90;;;;;;5040354;28;20029;-57
2021/01/10 00:24:47;;;;;;;39.63;16.77;;;1.90;99.90;;;;;;5058162;28;20032;-57
2021/01/10 00:27:15;;;;;;;37.10;16.93;;;1.90;99.90;;;;;;5058147;28;20060;-58
2021/01/10 00:29:43;;;;;;;39.40;16.53;;;1.90;99.90;;;;;;5058278;28;20021;-57
2021/01/10 00:32:10;;;;;;;39.60;17.57;;;1.90;99.90;;;;;;5065336;28;20567;-57
2021/01/10 00:34:35;;;;;;;34.67;16.87;;;1.90;99.90;;;;;;5098203;28;20336;-57
2021/01/10 00:37:06;;;;;;;37.40;17.53;;;2.00;99.90;;;;;;5098333;28;20078;-58
2021/01/10 00:39:32;;;;;;;36.57;19.30;;;2.00;99.90;;;;;;5098108;28;20030;-58
2021/01/10 00:41:58;;;;;;;44.63;20.53;;;2.00;99.90;;;;;;5098362;28;20235;-57
2021/01/10 00:44:23;;;;;;;34.70;18.20;;;2.10;99.90;;;;;;5097872;28;20200;-58
2021/01/10 00:46:51;;;;;;;36.23;17.33;;;2.10;99.90;;;;;;5098179;28;20106;-57
2021/01/10 00:49:17;;;;;;;43.80;22.53;;;2.00;99.90;;;;;;5099626;28;20377;-58
2021/01/10 00:51:42;;;;;;;38.10;19.37;;;2.00;99.90;;;;;;5118534;28;20063;-58
2021/01/10 00:54:08;;;;;;;34.75;17.40;;;2.00;99.90;;;;;;5117985;28;20060;-58
2021/01/10 00:56:34;;;;;;;39.75;18.05;;;2.00;99.90;;;;;;5118292;28;20039;-58
2021/01/10 00:58:59;;;;;;;40.35;19.05;;;2.00;99.90;;;;;;5118441;28;20487;-58
2021/01/10 01:01:25;;;;;;;41.23;17.23;;;2.10;99.90;;;;;;5118081;28;20111;-58
2021/01/10 01:03:50;;;;;;;33.03;15.27;;;2.00;99.90;;;;;;5117812;28;20054;-58
2021/01/10 01:06:16;;;;;;;41.40;16.00;;;1.90;99.90;;;;;;5117953;28;20028;-58
2021/01/10 01:08:42;;;;;;;36.07;15.50;;;1.90;99.90;;;;;;5116620;28;20418;-57
2021/01/10 01:11:08;;;;;;;34.73;17.87;;;1.90;99.90;;;;;;5118109;28;20076;-58
2021/01/10 01:13:34;;;;;;;35.83;17.43;;;1.90;99.90;;;;;;5117841;28;20321;-58
2021/01/10 01:15:59;;;;;;;36.90;17.80;;;1.90;99.90;;;;;;5117933;28;20031;-58
2021/01/10 01:18:25;;;;;;;33.33;18.73;;;1.90;99.90;;;;;;5117951;28;20032;-58
2021/01/10 01:20:51;;;;;;;34.60;17.80;;;1.90;99.90;;;;;;5117904;28;20115;-58
2021/01/10 01:23:17;;;;;;;30.10;17.80;;;1.90;99.90;;;;;;5099649;28;20018;-58
2021/01/10 01:25:43;;;;;;;42.53;18.27;;;1.90;99.90;;;;;;5117472;28;20031;-58
2021/01/10 01:28:09;;;;;;;31.60;16.05;;;1.80;99.90;;;;;;5117453;28;20031;-57
2021/01/10 01:30:35;;;;;;;33.30;17.70;;;1.80;99.90;;;;;;5117529;28;20059;-58
2021/01/10 01:33:01;;;;;;;31.80;17.00;;;1.80;99.90;;;;;;5117001;28;20083;-57
2021/01/10 01:35:26;;;;;;;38.10;18.35;;;1.70;99.90;;;;;;5117184;28;20065;-57
2021/01/10 01:37:52;;;;;;;35.50;17.53;;;1.70;99.90;;;;;;5117388;28;20066;-57
2021/01/10 01:40:18;;;;;;;39.35;17.50;;;1.70;99.90;;;;;;5117446;28;20028;-57
2021/01/10 01:42:46;;;;;;;33.27;18.20;;;1.70;99.90;;;;;;5117356;28;20059;-57
2021/01/10 01:45:12;;;;;;;46.03;20.80;;;1.70;99.90;;;;;;5117546;28;20413;-57
2021/01/10 01:47:39;;;;;;;42.87;19.63;;;1.70;99.90;;;;;;5117059;28;20350;-57
2021/01/10 01:50:06;;;;;;;36.33;20.07;;;1.70;99.90;;;;;;5117395;28;19994;-56
2021/01/10 01:52:32;;;;;;;42.53;20.37;;;1.60;99.90;;;;;;5117466;28;20379;-57
2021/01/10 01:54:58;;;;;;;43.20;22.70;;;1.60;99.90;;;;;;5117129;28;20070;-57
2021/01/10 01:57:24;;;;;;;51.77;24.90;;;1.60;99.90;;;;;;5099549;28;20397;-57
2021/01/10 01:59:49;;;;;;;48.43;22.17;;;1.60;99.90;;;;;;5117014;28;20090;-57
2021/01/10 02:02:15;;;;;;;48.03;22.37;;;1.60;99.90;;;;;;5117031;28;20337;-57
2021/01/10 02:04:47;;;;;;;45.83;23.57;;;1.60;99.90;;;;;;5117220;28;20080;-57
2021/01/10 02:07:38;;;;;;;41.37;22.60;;;1.60;99.90;;;;;;5117150;28;20024;-56
2021/01/10 02:10:10;;;;;;;45.10;22.93;;;1.60;99.90;;;;;;5117245;28;20032;-57
2021/01/10 02:12:43;;;;;;;46.93;23.80;;;1.60;99.90;;;;;;5117260;28;20055;-57
2021/01/10 02:15:13;;;;;;;46.50;23.05;;;1.60;99.90;;;;;;5117407;28;20331;-57
2021/01/10 02:17:44;;;;;;;41.23;23.23;;;1.70;99.90;;;;;;5116614;28;20429;-56
2021/01/10 02:20:13;;;;;;;47.33;22.77;;;1.60;99.90;;;;;;5114897;28;20059;-57
2021/01/10 02:22:44;;;;;;;47.55;23.45;;;1.60;99.90;;;;;;5117110;28;20082;-57
2021/01/10 02:25:12;;;;;;;43.80;24.80;;;1.50;99.90;;;;;;5116734;28;20093;-57
2021/01/10 02:27:39;;;;;;;47.47;25.83;;;1.50;99.90;;;;;;5116790;28;20251;-57
2021/01/10 02:30:05;;;;;;;46.53;26.57;;;1.40;99.90;;;;;;5116887;28;20769;-57
2021/01/10 02:32:34;;;;;;;49.07;26.13;;;1.30;99.90;;;;;;5098711;28;20436;-57
2021/01/10 02:35:00;;;;;;;56.27;26.03;;;1.30;99.90;;;;;;5098404;28;20615;-57
2021/01/10 02:37:42;;;;;;;54.30;28.50;;;1.30;99.90;;;;;;5116795;28;20050;-57
2021/01/10 02:40:17;;;;;;;54.23;26.17;;;1.20;99.90;;;;;;5117261;28;20218;-57
2021/01/10 02:42:53;;;;;;;53.07;27.17;;;1.10;99.90;;;;;;5116886;28;20255;-57
2021/01/10 02:45:23;;;;;;;54.07;28.60;;;1.00;99.90;;;;;;5116717;28;20693;-57
2021/01/10 02:47:49;;;;;;;54.93;27.70;;;1.10;99.90;;;;;;5117147;28;20740;-57
2021/01/10 02:50:18;;;;;;;60.37;28.90;;;0.90;99.90;;;;;;5116309;28;20309;-57
2021/01/10 02:52:48;;;;;;;54.90;27.10;;;0.80;99.90;;;;;;5116866;28;20035;-57
2021/01/10 02:55:14;;;;;;;58.40;30.03;;;0.80;99.90;;;;;;5116467;28;20044;-57
2021/01/10 02:57:44;;;;;;;53.97;30.53;;;0.70;99.90;;;;;;5116604;28;20058;-58
2021/01/10 03:00:11;;;;;;;49.97;24.70;;;0.60;99.90;;;;;;5116356;28;20124;-57
2021/01/10 03:02:37;;;;;;;55.60;28.60;;;0.60;99.90;;;;;;5116423;28;20289;-57
2021/01/10 03:05:05;;;;;;;55.67;29.47;;;0.50;99.90;;;;;;5116688;28;20690;-57
2021/01/10 03:07:36;;;;;;;57.20;27.83;;;0.40;99.90;;;;;;5116492;28;20036;-57
2021/01/10 03:10:03;;;;;;;55.07;27.87;;;0.40;99.90;;;;;;5116532;28;20238;-56
2021/01/10 03:12:30;;;;;;;56.87;29.37;;;0.40;99.90;;;;;;5116092;28;20141;-57
2021/01/10 03:14:59;;;;;;;57.13;28.87;;;0.40;99.90;;;;;;5116874;28;20045;-56
2021/01/10 03:17:43;;;;;;;52.03;31.03;;;0.30;99.90;;;;;;5116887;28;20061;-58
2021/01/10 03:20:20;;;;;;;45.28;24.77;;;0.30;99.90;;;;;;5110773;28;20240;-57
2021/01/10 03:22:47;;;;;;;60.30;29.67;;;0.20;99.90;;;;;;5096203;28;20024;-57
2021/01/10 03:25:18;;;;;;;60.00;30.70;;;0.30;99.90;;;;;;5096123;28;20713;-57
2021/01/10 03:27:44;;;;;;;60.40;29.30;;;0.30;99.90;;;;;;5095640;28;20284;-57
2021/01/10 03:30:13;;;;;;;56.33;28.90;;;0.30;99.90;;;;;;5096994;28;20256;-57
2021/01/10 03:32:39;;;;;;;54.20;28.67;;;0.20;99.90;;;;;;5118414;28;20039;-57
2021/01/10 03:35:08;;;;;;;57.27;27.23;;;0.10;99.90;;;;;;5119867;28;20577;-58
2021/01/10 03:37:37;;;;;;;62.27;29.70;;;0.10;99.90;;;;;;5120006;28;20058;-58
2021/01/10 03:40:04;;;;;;;68.63;31.63;;;0.10;99.90;;;;;;5119738;28;20271;-57
2021/01/10 03:42:30;;;;;;;62.70;32.23;;;0.20;99.90;;;;;;5119612;28;20232;-58
2021/01/10 03:44:56;;;;;;;61.17;33.87;;;0.10;99.90;;;;;;5119518;28;20089;-58
2021/01/10 03:47:21;;;;;;;64.25;31.55;;;0.10;99.90;;;;;;5119462;28;20487;-58
2021/01/10 03:49:47;;;;;;;67.80;32.07;;;0.00;99.90;;;;;;5119611;28;20031;-57
2021/01/10 03:52:12;;;;;;;65.40;30.40;;;-0.10;99.90;;;;;;5119297;28;20489;-57
2021/01/10 03:54:38;;;;;;;63.30;29.37;;;-0.10;99.90;;;;;;5119422;28;20023;-58
2021/01/10 03:57:04;;;;;;;63.30;31.85;;;-0.10;99.90;;;;;;5119739;28;20286;-57
2021/01/10 03:59:29;;;;;;;63.60;30.80;;;0.00;99.90;;;;;;5119363;28;20035;-57
2021/01/10 04:01:55;;;;;;;64.55;30.90;;;-0.10;99.90;;;;;;5101092;28;20103;-58
2021/01/10 04:04:21;;;;;;;67.10;31.90;;;-0.10;99.90;;;;;;5119124;28;20485;-58
2021/01/10 04:06:47;;;;;;;63.53;30.90;;;-0.20;99.90;;;;;;5119012;28;20027;-57
2021/01/10 04:09:13;;;;;;;65.30;32.07;;;-0.10;99.90;;;;;;5119374;28;20027;-57
2021/01/10 04:11:39;;;;;;;61.00;31.10;;;-0.10;99.90;;;;;;5119722;28;20481;-57
2021/01/10 04:14:04;;;;;;;65.03;31.60;;;-0.20;99.90;;;;;;5118845;28;20056;-57
2021/01/10 04:16:30;;;;;;;67.15;31.55;;;-0.20;99.90;;;;;;5119193;28;20035;-57
2021/01/10 04:18:55;;;;;;;69.60;33.67;;;-0.20;99.90;;;;;;5119558;28;20050;-57
2021/01/10 04:21:21;;;;;;;65.05;31.70;;;-0.20;99.90;;;;;;5102991;28;20020;-57
2021/01/10 04:23:47;;;;;;;66.87;32.07;;;-0.30;99.90;;;;;;5098594;28;20050;-58
2021/01/10 04:26:13;;;;;;;69.65;31.80;;;-0.40;99.90;;;;;;5080412;28;20173;-57
2021/01/10 04:28:39;;;;;;;61.87;31.73;;;-0.40;99.90;;;;;;5080363;28;20068;-57
2021/01/10 04:31:04;;;;;;;60.40;32.73;;;-0.40;99.90;;;;;;5092319;28;19916;-57
2021/01/10 04:33:30;;;;;;;69.80;35.10;;;-0.40;99.90;;;;;;5058080;28;20045;-57
2021/01/10 04:35:56;;;;;;;69.43;34.20;;;-0.40;99.90;;;;;;5058008;28;19928;-57
2021/01/10 04:38:22;;;;;;;61.03;30.43;;;-0.40;99.90;;;;;;5058199;28;20029;-57
2021/01/10 04:40:47;;;;;;;69.87;34.47;;;-0.40;99.90;;;;;;5058009;28;20119;-57
2021/01/10 04:43:14;;;;;;;78.07;34.57;;;-0.40;99.90;;;;;;5057514;28;20109;-57
2021/01/10 04:45:40;;;;;;;68.13;32.10;;;-0.40;99.90;;;;;;5057760;28;20162;-57
2021/01/10 04:48:08;;;;;;;69.37;34.03;;;-0.40;99.90;;;;;;5057696;28;20296;-57
2021/01/10 04:50:35;;;;;;;72.05;34.25;;;-0.40;99.90;;;;;;5069420;28;20667;-57
2021/01/10 04:53:02;;;;;;;56.80;30.90;;;-0.40;99.90;;;;;;5077638;28;20538;-57
2021/01/10 04:55:32;;;;;;;61.30;32.93;;;-0.40;99.90;;;;;;5077504;28;20044;-57
2021/01/10 04:58:03;;;;;;;58.60;30.67;;;-0.40;99.90;;;;;;5077765;28;20066;-57
2021/01/10 05:00:31;;;;;;;67.37;32.63;;;-0.50;99.90;;;;;;5077836;28;20276;-57
2021/01/10 05:03:07;;;;;;;68.40;34.87;;;-0.50;99.90;;;;;;5076210;28;20284;-57
2021/01/10 05:05:37;;;;;;;63.20;32.85;;;-0.50;99.90;;;;;;5077301;28;20339;-57
2021/01/10 05:08:11;;;;;;;78.33;35.50;;;-0.50;99.90;;;;;;5077190;28;20244;-57
2021/01/10 05:10:38;;;;;;;77.75;34.90;;;-0.40;99.90;;;;;;5077545;28;20208;-57
2021/01/10 05:13:05;;;;;;;79.40;36.10;;;-0.30;99.90;;;;;;5077271;28;20276;-57
2021/01/10 05:15:32;;;;;;;81.70;38.37;;;-0.20;99.90;;;;;;5077019;28;20063;-57
2021/01/10 05:17:59;;;;;;;71.77;33.93;;;-0.30;99.90;;;;;;5077100;28;20099;-56
2021/01/10 05:20:26;;;;;;;68.75;33.85;;;-0.30;99.90;;;;;;5076674;28;20212;-57
2021/01/10 05:22:52;;;;;;;71.15;31.50;;;-0.40;99.90;;;;;;5077495;28;20245;-58
2021/01/10 05:25:18;;;;;;;61.20;31.03;;;-0.40;99.90;;;;;;5076893;28;20269;-57
2021/01/10 05:27:52;;;;;;;62.07;31.83;;;-0.40;99.90;;;;;;5077260;28;20024;-57
2021/01/10 05:30:26;;;;;;;61.77;31.83;;;-0.40;99.90;;;;;;5077211;28;20620;-57
2021/01/10 05:33:06;;;;;;;66.80;30.67;;;-0.50;99.90;;;;;;5075663;28;20085;-57
2021/01/10 05:35:52;;;;;;;61.10;30.50;;;-0.50;99.90;;;;;;5077427;28;20617;-57
2021/01/10 05:38:25;;;;;;;56.57;30.37;;;-0.60;99.90;;;;;;5076728;28;20222;-56
2021/01/10 05:40:53;;;;;;;62.80;31.23;;;-0.60;99.90;;;;;;5076885;28;20288;-58
2021/01/10 05:43:19;;;;;;;59.05;30.15;;;-0.60;99.90;;;;;;5076724;28;20112;-57
2021/01/10 05:45:44;;;;;;;61.67;31.10;;;-0.60;99.90;;;;;;5076814;28;20069;-57
2021/01/10 05:48:12;;;;;;;65.40;30.55;;;-0.70;99.90;;;;;;5076473;28;20033;-57
2021/01/10 05:50:46;;;;;;;55.10;27.73;;;-0.70;99.90;;;;;;5076674;28;20434;-57
2021/01/10 05:53:23;;;;;;;52.20;27.15;;;-0.80;99.90;;;;;;5076281;28;20298;-57
2021/01/10 05:55:55;;;;;;;59.60;28.80;;;-0.80;99.90;;;;;;5076869;28;20252;-57
2021/01/10 05:58:22;;;;;;;58.03;28.83;;;-0.80;99.90;;;;;;5077022;28;20276;-57
2021/01/10 06:00:51;;;;;;;59.17;29.07;;;-0.90;99.90;;;;;;5076364;28;20344;-57
2021/01/10 06:03:22;;;;;;;61.07;29.23;;;-0.90;99.90;;;;;;5058785;28;20056;-57
2021/01/10 06:05:55;;;;;;;65.90;31.23;;;-0.80;99.90;;;;;;5076453;28;20056;-57
2021/01/10 06:08:34;;;;;;;57.90;30.13;;;-0.80;99.90;;;;;;5076703;28;20441;-57
2021/01/10 06:11:19;;;;;;;58.20;29.30;;;-0.80;99.90;;;;;;5076194;28;20034;-57
2021/01/10 06:13:57;;;;;;;61.83;28.57;;;-0.80;99.90;;;;;;5076372;28;20673;-58
2021/01/10 06:16:28;;;;;;;57.60;27.10;;;-0.80;99.90;;;;;;5076114;28;20664;-57
2021/01/10 06:19:15;;;;;;;62.27;30.07;;;-0.80;99.90;;;;;;5076225;28;20655;-57
2021/01/10 06:21:47;;;;;;;67.30;33.25;;;-0.70;99.90;;;;;;5075974;28;20050;-57
2021/01/10 06:24:19;;;;;;;56.70;30.83;;;-0.70;99.90;;;;;;5076191;28;20245;-57
2021/01/10 06:26:50;;;;;;;60.30;30.15;;;-0.70;99.90;;;;;;5076221;28;20272;-57
2021/01/10 06:29:19;;;;;;;57.50;26.67;;;-0.70;99.90;;;;;;5076546;28;20257;-57
2021/01/10 06:31:47;;;;;;;56.57;29.20;;;-0.80;99.90;;;;;;5075756;28;20579;-57
2021/01/10 06:34:15;;;;;;;68.10;33.73;;;-0.80;99.90;;;;;;5075769;28;20038;-57
2021/01/10 06:36:42;;;;;;;65.30;33.13;;;-0.80;99.90;;;;;;5076207;28;20311;-57
2021/01/10 06:39:15;;;;;;;72.43;39.43;;;-0.80;99.90;;;;;;5076311;28;20465;-57
2021/01/10 06:41:52;;;;;;;83.20;40.50;;;-0.80;99.90;;;;;;5076862;28;20265;-57
2021/01/10 06:44:20;;;;;;;82.07;47.27;;;-0.80;99.90;;;;;;5076319;28;20055;-58
2021/01/10 06:46:52;;;;;;;82.45;42.25;;;-0.80;99.90;;;;;;5076508;28;20060;-57
2021/01/10 06:49:18;;;;;;;70.50;40.67;;;-0.90;99.90;;;;;;5076159;28;20440;-57
2021/01/10 06:51:46;;;;;;;74.47;36.07;;;-0.90;99.90;;;;;;5076000;28;20056;-57
2021/01/10 06:54:12;;;;;;;68.05;35.55;;;-0.90;99.90;;;;;;5076004;28;20287;-57
2021/01/10 06:56:38;;;;;;;67.25;33.75;;;-0.90;99.90;;;;;;5075971;28;20265;-57
2021/01/10 06:59:23;;;;;;;66.40;32.97;;;-0.90;99.90;;;;;;5075791;28;20043;-57
2021/01/10 07:01:49;;;;;;;62.43;32.43;;;-1.00;99.90;;;;;;5075858;28;20052;-58
2021/01/10 07:04:16;;;;;;;70.87;33.13;;;-1.00;99.90;;;;;;5076031;28;20294;-57
2021/01/10 07:06:46;;;;;;;70.47;33.87;;;-1.00;99.90;;;;;;5079847;28;20111;-57
2021/01/10 07:09:13;;;;;;;70.30;33.03;;;-1.00;99.90;;;;;;5079793;28;20050;-57
2021/01/10 07:11:39;;;;;;;64.10;32.03;;;-1.00;99.90;;;;;;5079532;28;20302;-57
2021/01/10 07:14:05;;;;;;;65.77;31.37;;;-1.00;99.90;;;;;;5079699;28;20256;-57
2021/01/10 07:16:31;;;;;;;63.00;31.30;;;-1.10;99.90;;;;;;5079720;28;20245;-57
2021/01/10 07:18:58;;;;;;;72.60;34.67;;;-1.10;99.90;;;;;;5079767;28;20119;-57
2021/01/10 07:21:40;;;;;;;63.83;32.63;;;-1.10;99.90;;;;;;5063259;28;20268;-57
2021/01/10 07:26:41;;;;;;;68.73;31.83;;;-1.10;99.90;;;;;;5058898;28;20268;-57
2021/01/10 07:29:30;;;;;;;58.57;29.57;;;-1.10;99.90;;;;;;5059266;28;20555;-57
2021/01/10 07:32:07;;;;;;;65.73;29.57;;;-1.10;99.90;;;;;;5076778;28;20361;-57
2021/01/10 07:34:53;;;;;;;60.87;29.70;;;-1.10;99.90;;;;;;5099535;28;20057;-57
2021/01/10 07:37:25;;;;;;;59.23;28.37;;;-1.10;99.90;;;;;;5098901;28;20144;-58
2021/01/10 07:39:56;;;;;;;59.97;29.67;;;-1.10;99.90;;;;;;5099591;28;20242;-57
2021/01/10 07:42:42;;;;;;;61.63;30.93;;;-1.10;99.90;;;;;;5099319;28;20214;-57
2021/01/10 07:45:20;;;;;;;61.83;30.57;;;-1.20;99.90;;;;;;5099041;28;20095;-57
2021/01/10 07:47:48;;;;;;;54.07;27.53;;;-1.20;99.90;;;;;;5099514;28;20673;-57
2021/01/10 07:50:17;;;;;;;56.57;31.23;;;-1.20;99.90;;;;;;5099105;28;20043;-57
2021/01/10 07:52:42;;;;;;;57.87;29.20;;;-1.20;99.90;;;;;;5099248;28;20215;-56
2021/01/10 07:55:23;;;;;;;62.77;30.27;;;-1.20;99.90;;;;;;5099093;28;20251;-56
2021/01/10 07:57:51;;;;;;;59.37;28.77;;;-1.20;99.90;;;;;;5099250;28;20039;-57
2021/01/10 08:00:33;;;;;;;63.17;31.27;;;-1.10;99.90;;;;;;5099275;28;20069;-57
2021/01/10 08:03:08;;;;;;;59.83;31.40;;;-1.10;99.90;;;;;;5098938;28;20248;-57
2021/01/10 08:05:36;;;;;;;61.05;31.15;;;-1.10;99.90;;;;;;5103417;28;20392;-57
2021/01/10 08:08:22;;;;;;;61.87;31.47;;;-1.10;99.90;;;;;;5119010;28;20583;-57
2021/01/10 08:10:52;;;;;;;61.13;29.73;;;-1.10;99.90;;;;;;5118646;28;20310;-57
2021/01/10 08:13:30;;;;;;;66.67;32.30;;;-1.10;99.90;;;;;;5119108;28;20076;-57
2021/01/10 08:15:59;;;;;;;57.90;28.17;;;-1.00;99.90;;;;;;5118718;28;20248;-57
2021/01/10 08:18:29;;;;;;;90.97;63.20;;;-1.10;99.90;;;;;;5100118;28;20267;-56
2021/01/10 08:20:55;;;;;;;61.27;34.47;;;-1.00;99.90;;;;;;5106292;28;20062;-57
2021/01/10 08:23:22;;;;;;;61.83;29.70;;;-1.00;99.90;;;;;;5098869;28;20252;-57
2021/01/10 08:25:51;;;;;;;63.60;31.40;;;-1.00;99.90;;;;;;5098354;28;20254;-57
2021/01/10 08:28:20;;;;;;;62.07;30.37;;;-0.90;99.90;;;;;;5098394;28;20570;-57
2021/01/10 08:30:46;;;;;;;62.50;29.60;;;-0.90;99.90;;;;;;5098474;28;20292;-56
2021/01/10 08:33:19;;;;;;;63.30;33.50;;;-0.90;99.90;;;;;;5061242;28;20623;-57
2021/01/10 08:35:48;;;;;;;63.03;34.17;;;-0.90;99.90;;;;;;5058296;28;20307;-57
2021/01/10 08:38:15;;;;;;;69.10;36.85;;;-0.80;99.90;;;;;;5057810;28;20056;-57
2021/01/10 08:40:41;;;;;;;68.80;33.87;;;-0.80;99.90;;;;;;5057910;28;20174;-58
2021/01/10 08:43:06;;;;;;;65.50;32.47;;;-0.80;99.90;;;;;;5058064;28;20340;-57
2021/01/10 08:45:32;;;;;;;59.47;31.07;;;-0.70;99.90;;;;;;5057405;28;20040;-57
2021/01/10 08:48:03;;;;;;;66.45;30.35;;;-0.70;99.90;;;;;;5058054;28;20074;-57
2021/01/10 08:50:41;;;;;;;57.00;30.95;;;-0.60;99.90;;;;;;5060036;28;20606;-57
2021/01/10 08:53:07;;;;;;;60.17;33.50;;;-0.60;99.90;;;;;;5076072;28;20244;-58
2021/01/10 08:55:32;;;;;;;65.37;31.57;;;-0.50;99.90;;;;;;5077685;28;20260;-58
2021/01/10 08:58:00;;;;;;;59.23;27.57;;;-0.30;99.90;;;;;;5077068;28;20436;-58
2021/01/10 09:00:26;;;;;;;59.00;29.60;;;-0.30;99.90;;;;;;5077254;28;20020;-58
2021/01/10 09:02:52;;;;;;;56.13;30.30;;;-0.30;99.90;;;;;;5077665;28;20062;-58
2021/01/10 09:05:25;;;;;;;69.40;31.25;;;-0.20;99.90;;;;;;5075873;28;20374;-58
2021/01/10 09:07:53;;;;;;;;;;;-0.20;99.90;;;;;;5078317;28;20020;-58
2021/01/10 09:10:21;;;;;;;59.55;29.75;;;-0.10;99.90;;;;;;5077190;28;19911;-57
2021/01/10 09:12:49;;;;;;;60.97;30.83;;;0.00;99.90;;;;;;5076258;28;20041;-57
2021/01/10 09:15:23;;;;;;;56.07;28.40;;;0.10;99.90;;;;;;5077404;28;20061;-58
2021/01/10 09:17:54;;;;;;;61.33;30.60;;;0.10;99.90;;;;;;5077681;28;20062;-58
2021/01/10 09:20:31;;;;;;;58.97;28.20;;;0.20;99.90;;;;;;5069712;28;20211;-58
2021/01/10 09:22:57;;;;;;;62.17;30.33;;;0.20;99.90;;;;;;5057395;28;20052;-58
2021/01/10 09:25:24;;;;;;;59.60;29.17;;;0.30;99.90;;;;;;5056942;28;20236;-58
2021/01/10 09:28:09;;;;;;;59.33;29.27;;;0.30;99.90;;;;;;5056661;28;20695;-58
2021/01/10 09:30:41;;;;;;;56.33;28.50;;;0.50;99.90;;;;;;5057232;28;20054;-57
2021/01/10 09:33:07;;;;;;;53.63;28.73;;;0.60;99.90;;;;;;5089660;28;20062;-58
2021/01/10 09:35:40;;;;;;;55.30;27.37;;;0.60;99.90;;;;;;5097226;28;20464;-58
2021/01/10 09:38:08;;;;;;;51.83;27.23;;;0.80;99.90;;;;;;5097128;28;20253;-57
2021/01/10 09:40:33;;;;;;;48.80;24.97;;;0.90;99.90;;;;;;5080952;28;20081;-57
2021/01/10 09:42:59;;;;;;;50.93;26.03;;;1.00;99.90;;;;;;5117360;28;20054;-57
2021/01/10 09:45:36;;;;;;;52.10;25.83;;;1.00;99.90;;;;;;5117624;28;20028;-58
2021/01/10 09:48:03;;;;;;;46.77;25.30;;;1.10;99.90;;;;;;5117492;28;20019;-58
2021/01/10 09:50:30;;;;;;;52.57;27.17;;;1.10;99.90;;;;;;5116917;28;20706;-58
2021/01/10 09:52:56;;;;;;;58.33;30.03;;;1.10;99.90;;;;;;5117180;28;20135;-58
2021/01/10 09:55:25;;;;;;;44.67;25.93;;;1.10;99.90;;;;;;5117003;28;20795;-57
2021/01/10 09:57:51;;;;;;;48.63;26.17;;;1.30;99.90;;;;;;5117182;28;19961;-58
2021/01/10 10:00:18;;;;;;;49.53;25.73;;;1.40;99.90;;;;;;5116216;28;20329;-57
2021/01/10 10:02:44;;;;;;;49.60;25.90;;;1.50;99.90;;;;;;5117131;28;20252;-57
2021/01/10 10:05:10;;;;;;;50.80;26.10;;;1.50;99.90;;;;;;5117010;28;20286;-58
2021/01/10 10:07:40;;;;;;;44.00;23.53;;;1.50;99.90;;;;;;5117068;28;20259;-58
2021/01/10 10:10:25;;;;;;;50.87;24.33;;;1.50;99.90;;;;;;5117288;28;20028;-58
2021/01/10 10:13:04;;;;;;;46.80;24.73;;;1.60;99.90;;;;;;5117215;28;19951;-58
2021/01/10 10:15:39;;;;;;;50.33;25.00;;;1.80;99.90;;;;;;5116957;28;20255;-58
2021/01/10 10:18:06;;;;;;;45.73;23.07;;;2.00;99.90;;;;;;5117112;28;20643;-58
2021/01/10 10:20:32;;;;;;;44.77;23.63;;;2.10;99.90;;;;;;5107583;28;20306;-58
2021/01/10 10:23:14;;;;;;;46.33;24.80;;;2.10;99.90;;;;;;5096528;28;20593;-58
2021/01/10 10:25:41;;;;;;;43.13;23.30;;;2.20;99.90;;;;;;5078015;28;20207;-58
2021/01/10 10:28:07;;;;;;;42.47;24.97;;;2.10;99.90;;;;;;5096357;28;19908;-58
2021/01/10 10:30:34;;;;;;;43.93;24.37;;;2.10;99.90;;;;;;5096453;28;20085;-58
2021/01/10 10:33:01;;;;;;;42.50;22.63;;;2.20;99.90;;;;;;5096153;28;20048;-59
2021/01/10 10:35:27;;;;;;;41.47;22.70;;;2.10;99.90;;;;;;5096394;28;20028;-58
2021/01/10 10:37:54;;;;;;;40.63;22.87;;;2.30;99.90;;;;;;5096198;28;20031;-58
2021/01/10 10:40:20;;;;;;;38.13;21.37;;;2.60;99.90;;;;;;5098560;28;20420;-58
2021/01/10 10:42:46;;;;;;;40.37;20.67;;;2.70;99.90;;;;;;5100524;28;20024;-59
2021/01/10 10:45:13;;;;;;;35.53;21.10;;;2.70;99.90;;;;;;5100383;28;20073;-58
2021/01/10 10:47:38;;;;;;;40.03;24.47;;;2.80;99.90;;;;;;5100649;28;20330;-58
2021/01/10 10:50:05;;;;;;;42.33;21.13;;;2.90;99.90;;;;;;5100297;28;20024;-57
2021/01/10 10:52:31;;;;;;;41.20;21.47;;;3.10;99.90;;;;;;5099879;28;19911;-57
2021/01/10 10:54:58;;;;;;;45.83;21.47;;;3.30;99.90;;;;;;5100032;28;20032;-56
2021/01/10 10:57:24;;;;;;;34.73;19.20;;;3.20;99.90;;;;;;5099990;28;20409;-56
2021/01/10 10:59:50;;;;;;;36.40;21.33;;;3.30;99.90;;;;;;5099837;28;20122;-56
2021/01/10 11:02:16;;;;;;;34.57;19.23;;;3.20;99.90;;;;;;5100316;28;20035;-57
2021/01/10 11:04:44;;;;;;;32.20;18.50;;;3.40;99.90;;;;;;5099858;28;20024;-57
2021/01/10 11:07:10;;;;;;;35.05;21.05;;;3.70;99.90;;;;;;5099819;28;20085;-57
2021/01/10 11:09:36;;;;;;;34.37;19.20;;;3.90;99.90;;;;;;5099425;28;20461;-57
2021/01/10 11:12:02;;;;;;;32.43;17.50;;;3.80;99.90;;;;;;5099533;28;20024;-57
2021/01/10 11:14:28;;;;;;;31.80;18.63;;;4.10;99.90;;;;;;5099901;28;20339;-57
2021/01/10 11:16:53;;;;;;;30.17;18.00;;;4.50;99.90;;;;;;5099819;28;20028;-57
2021/01/10 11:19:21;;;;;;;30.07;17.10;;;4.40;99.90;;;;;;5081672;28;20032;-57
2021/01/10 11:21:49;;;;;;;30.13;18.37;;;4.40;99.90;;;;;;5099288;28;20330;-57
2021/01/10 11:24:15;;;;;;;30.30;18.23;;;4.50;99.90;;;;;;5099643;28;19904;-57
2021/01/10 11:26:42;;;;;;;29.97;16.97;;;4.50;99.90;;;;;;5099732;28;19911;-57
2021/01/10 11:29:09;;;;;;;28.97;17.90;;;4.90;99.90;;;;;;5099571;28;19915;-58
2021/01/10 11:31:35;;;;;;;27.33;17.07;;;5.30;99.90;;;;;;5111904;28;19908;-57
2021/01/10 11:34:07;;;;;;;22.77;14.80;;;5.40;99.90;;;;;;5119718;28;20031;-57
2021/01/10 11:36:34;;;;;;;26.03;16.63;;;5.30;99.90;;;;;;5120140;28;20032;-57
2021/01/10 11:39:00;;;;;;;24.23;15.90;;;5.20;99.90;;;;;;5119573;28;20401;-58
2021/01/10 11:41:26;;;;;;;27.90;17.10;;;5.40;99.90;;;;;;5119762;28;19998;-58
2021/01/10 11:43:53;;;;;;;28.67;15.87;;;5.70;99.90;;;;;;5119596;28;20032;-58
2021/01/10 11:46:22;;;;;;;27.07;15.47;;;5.80;99.90;;;;;;5118945;28;20493;-58
2021/01/10 11:48:49;;;;;;;24.50;14.80;;;5.80;99.90;;;;;;5116844;28;20381;-58
2021/01/10 11:51:16;;;;;;;25.50;15.43;;;5.70;99.90;;;;;;5112113;28;20373;-56
2021/01/10 11:53:42;;;;;;;23.93;14.80;;;5.90;99.90;;;;;;5106812;28;20024;-56
2021/01/10 11:56:09;;;;;;;23.70;14.83;;;6.20;99.90;;;;;;5109229;28;19914;-56
2021/01/10 11:58:37;;;;;;;19.23;12.50;;;6.40;99.90;;;;;;5114520;28;20099;-56
2021/01/10 12:01:03;;;;;;;20.13;12.37;;;6.60;99.90;;;;;;5119221;28;20023;-55
2021/01/10 12:03:28;;;;;;;23.47;15.63;;;6.50;99.90;;;;;;5119002;28;20383;-56
2021/01/10 12:05:54;;;;;;;22.97;14.90;;;6.30;99.90;;;;;;5119019;28;20034;-56
2021/01/10 12:08:21;;;;;;;24.40;13.63;;;6.20;99.90;;;;;;5118945;28;20024;-56
2021/01/10 12:10:48;;;;;;;11.73;7.07;;;6.20;99.90;;;;;;5100913;28;19943;-55
2021/01/10 12:13:16;;;;;;;8.90;5.90;;;6.00;99.90;;;;;;5118835;28;20047;-55
2021/01/10 12:15:45;;;;;;;6.27;3.30;;;6.20;99.90;;;;;;5101192;28;20028;-55
2021/01/10 12:18:10;;;;;;;8.30;5.77;;;6.10;99.90;;;;;;5119349;28;20023;-55
2021/01/10 12:20:36;;;;;;;8.60;3.60;;;6.00;99.90;;;;;;5108872;28;20111;-56
2021/01/10 12:23:03;;;;;;;5.00;3.33;;;5.90;99.90;;;;;;5097894;28;20034;-56
2021/01/10 12:25:29;;;;;;;7.73;5.10;;;6.00;99.90;;;;;;5097951;28;20024;-55
2021/01/10 12:27:55;;;;;;;6.60;3.63;;;6.00;99.90;;;;;;5098816;28;20027;-56
2021/01/10 12:30:22;;;;;;;6.93;4.20;;;5.90;99.90;;;;;;5080231;28;19908;-56
2021/01/10 12:32:48;;;;;;;5.87;3.90;;;6.00;99.90;;;;;;5097877;28;20458;-56
2021/01/10 12:35:16;;;;;;;5.50;3.40;;;6.00;99.90;;;;;;5106663;28;20028;-56
2021/01/10 12:37:42;;;;;;;6.45;4.10;;;6.00;99.90;;;;;;5118148;28;20027;-56
2021/01/10 12:40:10;;;;;;;4.60;3.07;;;6.00;99.90;;;;;;5118250;28;20414;-55
2021/01/10 12:42:36;;;;;;;6.43;4.23;;;6.10;99.90;;;;;;5117853;28;20232;-55